createdAt,value
2018-07-15T00:00:34.108Z,14.90
2018-07-15T00:02:36.799Z,14.80
2018-07-15T00:04:39.643Z,14.70
2018-07-15T00:06:42.440Z,14.70
2018-07-15T00:08:45.197Z,14.60
2018-07-15T00:10:47.768Z,14.60
2018-07-15T00:12:50.608Z,14.60
2018-07-15T00:14:53.213Z,14.60
2018-07-15T00:16:55.938Z,14.60
2018-07-15T00:18:58.878Z,14.60
2018-07-15T00:21:01.552Z,14.60
2018-07-15T00:23:04.296Z,14.50
2018-07-15T00:25:06.993Z,14.50
2018-07-15T00:27:09.608Z,14.30
2018-07-15T00:29:12.154Z,14.30
2018-07-15T00:31:14.753Z,14.30
2018-07-15T00:33:17.403Z,14.30
2018-07-15T00:35:20.117Z,14.30
2018-07-15T00:37:22.937Z,14.30
2018-07-15T00:39:25.645Z,14.30
2018-07-15T00:41:28.334Z,14.30
2018-07-15T00:43:31.104Z,14.30
2018-07-15T00:45:34.059Z,14.20
2018-07-15T00:47:36.844Z,14.10
2018-07-15T00:49:39.620Z,14.10
2018-07-15T00:51:42.440Z,14.10
2018-07-15T00:53:45.111Z,14.00
2018-07-15T00:55:47.846Z,14.00
2018-07-15T00:57:50.491Z,13.90
2018-07-15T00:59:53.140Z,13.80
2018-07-15T01:01:55.821Z,13.70
2018-07-15T01:03:58.458Z,13.70
2018-07-15T01:06:01.355Z,13.80
2018-07-15T01:08:04.156Z,13.70
2018-07-15T01:10:06.991Z,13.70
2018-07-15T01:12:09.725Z,13.60
2018-07-15T01:14:12.382Z,13.60
2018-07-15T01:16:15.049Z,13.60
2018-07-15T01:18:17.771Z,13.70
2018-07-15T01:20:20.299Z,13.60
2018-07-15T01:22:22.351Z,13.60
2018-07-15T01:24:24.426Z,13.70
2018-07-15T01:26:26.489Z,13.60
2018-07-15T01:28:28.577Z,13.60
2018-07-15T01:30:30.637Z,13.50
2018-07-15T01:32:32.738Z,13.50
2018-07-15T01:34:34.801Z,13.40
2018-07-15T01:36:36.861Z,13.30
2018-07-15T01:38:38.928Z,13.30
2018-07-15T01:40:40.981Z,13.30
2018-07-15T01:42:43.109Z,13.20
2018-07-15T01:44:45.159Z,13.20
2018-07-15T01:46:47.210Z,13.20
2018-07-15T01:48:49.285Z,13.20
2018-07-15T01:50:51.345Z,13.10
2018-07-15T01:52:53.397Z,13.10
2018-07-15T01:54:55.457Z,13.10
2018-07-15T01:56:57.494Z,13.10
2018-07-15T01:58:59.549Z,13.10
2018-07-15T02:01:01.612Z,13.10
2018-07-15T02:03:03.669Z,13.10
2018-07-15T02:05:06.361Z,13.10
2018-07-15T02:07:08.429Z,13.10
2018-07-15T02:09:10.473Z,13.00
2018-07-15T02:11:12.541Z,12.90
2018-07-15T02:13:14.602Z,12.90
2018-07-15T02:15:16.692Z,12.80
2018-07-15T02:17:18.773Z,12.80
2018-07-15T02:19:20.853Z,12.70
2018-07-15T02:21:22.900Z,12.80
2018-07-15T02:25:27.085Z,12.70
2018-07-15T02:27:29.153Z,12.70
2018-07-15T02:29:31.205Z,12.70
2018-07-15T02:31:33.258Z,12.70
2018-07-15T02:33:35.350Z,12.70
2018-07-15T02:35:37.398Z,12.60
2018-07-15T02:37:39.497Z,12.50
2018-07-15T02:39:41.574Z,12.50
2018-07-15T02:41:43.624Z,12.50
2018-07-15T02:43:45.701Z,12.50
2018-07-15T02:45:47.750Z,12.40
2018-07-15T02:47:49.793Z,12.40
2018-07-15T02:49:51.837Z,12.40
2018-07-15T02:51:53.901Z,12.30
2018-07-15T02:53:55.962Z,12.40
2018-07-15T02:55:58.009Z,12.30
2018-07-15T02:58:00.067Z,12.20
2018-07-15T03:00:02.122Z,12.20
2018-07-15T03:02:04.283Z,12.10
2018-07-15T03:04:06.271Z,12.10
2018-07-15T03:06:08.321Z,12.20
2018-07-15T03:08:10.391Z,12.10
2018-07-15T03:10:12.466Z,12.20
2018-07-15T03:12:14.533Z,12.20
2018-07-15T03:14:16.594Z,12.20
2018-07-15T03:16:18.657Z,12.20
2018-07-15T03:18:20.701Z,12.20
2018-07-15T03:20:22.749Z,12.20
2018-07-15T03:22:24.807Z,12.20
2018-07-15T03:24:26.873Z,12.10
2018-07-15T03:26:28.934Z,12.10
2018-07-15T03:28:30.977Z,12.00
2018-07-15T03:30:33.038Z,11.90
2018-07-15T03:32:35.091Z,11.90
2018-07-15T03:34:37.193Z,11.90
2018-07-15T03:36:39.246Z,11.80
2018-07-15T03:38:41.321Z,11.80
2018-07-15T03:40:45.437Z,12.00
2018-07-15T03:42:47.506Z,12.00
2018-07-15T03:44:49.592Z,12.10
2018-07-15T03:46:51.669Z,12.10
2018-07-15T03:48:53.727Z,12.00
2018-07-15T03:50:55.777Z,12.00
2018-07-15T03:52:57.833Z,12.00
2018-07-15T03:54:59.888Z,11.90
2018-07-15T03:57:01.934Z,11.90
2018-07-15T03:59:04.013Z,11.90
2018-07-15T04:01:06.053Z,11.90
2018-07-15T04:03:08.098Z,11.90
2018-07-15T04:05:10.146Z,12.00
2018-07-15T04:07:12.194Z,12.00
2018-07-15T04:09:14.255Z,12.00
2018-07-15T04:11:16.294Z,12.00
2018-07-15T04:13:18.349Z,12.00
2018-07-15T04:15:20.400Z,12.00
2018-07-15T04:17:22.468Z,12.00
2018-07-15T04:19:24.518Z,12.00
2018-07-15T04:21:26.568Z,12.10
2018-07-15T04:23:28.638Z,12.20
2018-07-15T04:25:31.467Z,12.20
2018-07-15T04:27:33.501Z,12.20
2018-07-15T04:29:35.550Z,12.20
2018-07-15T04:31:37.610Z,12.30
2018-07-15T04:35:41.782Z,12.40
2018-07-15T04:37:43.853Z,12.40
2018-07-15T04:39:45.921Z,12.50
2018-07-15T04:41:47.988Z,12.50
2018-07-15T04:43:50.058Z,12.60
2018-07-15T04:45:52.108Z,12.70
2018-07-15T04:47:54.157Z,12.70
2018-07-15T04:49:56.228Z,12.80
2018-07-15T04:51:58.263Z,12.80
2018-07-15T04:54:00.297Z,12.90
2018-07-15T04:56:02.355Z,12.90
2018-07-15T04:58:04.413Z,13.00
2018-07-15T05:00:06.499Z,13.10
2018-07-15T05:02:08.605Z,13.10
2018-07-15T05:04:12.257Z,13.20
2018-07-15T05:06:14.853Z,13.30
2018-07-15T05:08:16.878Z,13.30
2018-07-15T05:10:18.933Z,13.40
2018-07-15T05:12:21.016Z,13.60
2018-07-15T05:14:23.049Z,13.70
2018-07-15T05:16:25.101Z,13.80
2018-07-15T05:18:27.224Z,13.80
2018-07-15T05:20:29.225Z,13.90
2018-07-15T05:22:31.290Z,14.00
2018-07-15T05:24:33.393Z,14.10
2018-07-15T05:26:35.436Z,14.20
2018-07-15T05:28:37.480Z,14.30
2018-07-15T05:30:39.521Z,14.40
2018-07-15T05:32:41.573Z,14.50
2018-07-15T05:34:43.649Z,14.60
2018-07-15T05:36:45.710Z,14.70
2018-07-15T05:38:47.774Z,14.90
2018-07-15T05:40:49.846Z,15.00
2018-07-15T05:42:51.901Z,15.10
2018-07-15T05:44:53.981Z,15.20
2018-07-15T05:46:56.025Z,15.40
2018-07-15T05:48:58.070Z,15.40
2018-07-15T05:51:00.143Z,15.50
2018-07-15T05:53:02.217Z,15.60
2018-07-15T05:57:06.481Z,15.90
2018-07-15T05:59:08.538Z,16.00
2018-07-15T06:01:10.604Z,16.10
2018-07-15T06:03:12.757Z,16.30
2018-07-15T06:05:14.825Z,16.40
2018-07-15T06:07:16.885Z,16.40
2018-07-15T06:09:18.947Z,16.60
2018-07-15T06:11:21.021Z,16.70
2018-07-15T06:13:23.088Z,16.90
2018-07-15T06:15:25.202Z,16.90
2018-07-15T06:17:27.244Z,17.10
2018-07-15T06:19:29.311Z,17.20
2018-07-15T06:21:31.374Z,17.30
2018-07-15T06:23:33.429Z,17.40
2018-07-15T06:25:35.481Z,17.40
2018-07-15T06:27:37.514Z,17.50
2018-07-15T06:29:39.581Z,17.60
2018-07-15T06:31:41.622Z,17.70
2018-07-15T06:33:43.687Z,17.90
2018-07-15T06:35:45.741Z,17.90
2018-07-15T06:37:47.818Z,18.00
2018-07-15T06:39:49.857Z,18.10
2018-07-15T06:41:51.913Z,18.20
2018-07-15T06:45:56.077Z,18.40
2018-07-15T06:47:58.269Z,18.60
2018-07-15T06:50:00.302Z,18.70
2018-07-15T06:52:02.354Z,19.00
2018-07-15T06:54:04.481Z,19.30
2018-07-15T06:56:06.529Z,19.60
2018-07-15T06:58:08.565Z,19.80
2018-07-15T07:00:10.593Z,19.80
2018-07-15T07:02:12.622Z,19.90
2018-07-15T07:04:14.649Z,20.10
2018-07-15T07:06:16.681Z,20.10
2018-07-15T07:08:18.732Z,20.30
2018-07-15T07:10:20.794Z,20.20
2018-07-15T07:12:22.849Z,20.40
2018-07-15T07:14:24.893Z,20.50
2018-07-15T07:16:26.952Z,20.60
2018-07-15T07:18:29.003Z,20.70
2018-07-15T21:42:52.709Z,19.50
2018-07-15T21:44:54.788Z,19.40
2018-07-15T21:46:56.873Z,19.30
2018-07-15T21:48:59.217Z,19.30
2018-07-15T21:51:02.398Z,19.30
2018-07-15T21:53:04.883Z,19.20
2018-07-15T21:55:06.977Z,19.10
2018-07-15T21:57:09.081Z,19.10
2018-07-15T21:59:11.137Z,19.10
2018-07-15T22:01:13.218Z,19.00
2018-07-15T22:03:15.327Z,19.00
2018-07-15T22:05:18.194Z,19.00
2018-07-15T22:07:31.950Z,18.90
2018-07-15T22:09:55.017Z,18.90
2018-07-15T22:11:58.445Z,18.70
2018-07-15T22:14:00.501Z,18.60
2018-07-15T22:16:02.582Z,18.60
2018-07-15T22:18:04.633Z,18.40
2018-07-15T22:20:06.702Z,18.40
2018-07-15T22:22:08.741Z,18.30
2018-07-15T22:24:10.809Z,18.20
2018-07-15T22:26:12.885Z,18.20
2018-07-15T22:28:14.966Z,18.10
2018-07-15T22:30:17.030Z,18.10
2018-07-15T22:32:19.101Z,18.10
2018-07-15T22:34:21.161Z,18.00
2018-07-15T22:36:23.225Z,17.90
2018-07-15T22:38:25.525Z,17.90
2018-07-15T22:40:27.617Z,17.90
2018-07-15T22:42:29.703Z,17.80
2018-07-15T22:44:31.785Z,17.80
2018-07-15T22:46:33.870Z,17.70
2018-07-15T22:48:35.927Z,17.70
2018-07-15T22:50:37.978Z,17.70
2018-07-15T22:52:40.075Z,17.70
2018-07-15T22:54:42.164Z,17.70
2018-07-15T22:56:44.272Z,17.70
2018-07-15T22:58:46.404Z,17.70
2018-07-15T23:00:48.502Z,17.50
2018-07-15T23:02:50.616Z,17.50
2018-07-15T23:06:01.736Z,17.50
2018-07-15T23:08:04.558Z,17.40
2018-07-15T23:10:06.648Z,17.50
2018-07-15T23:12:08.768Z,17.50
2018-07-15T23:14:10.853Z,17.50
2018-07-15T23:16:12.965Z,17.50
2018-07-15T23:18:15.066Z,17.40
2018-07-15T23:20:17.125Z,17.40
2018-07-15T23:22:19.193Z,17.30
2018-07-15T23:24:21.288Z,17.30
2018-07-15T23:26:23.404Z,17.30
2018-07-15T23:28:25.505Z,17.10
2018-07-15T23:30:28.363Z,17.10
2018-07-15T23:32:30.437Z,17.00
2018-07-15T23:34:32.509Z,17.00
2018-07-15T23:36:34.581Z,17.00
2018-07-15T23:38:36.661Z,16.90
2018-07-15T23:40:38.737Z,16.80
2018-07-15T23:42:40.858Z,16.70
2018-07-15T23:44:42.952Z,16.70
2018-07-15T23:46:45.046Z,16.70
2018-07-15T23:48:47.166Z,16.70
2018-07-15T23:50:49.296Z,16.70
2018-07-15T23:52:51.493Z,16.70
2018-07-15T23:54:53.702Z,16.60
2018-07-15T23:56:55.790Z,16.50
2018-07-15T23:58:57.857Z,16.60
